Time;durP1;ratioP1;P1;durP2;ratioP2;P2;SDS_P1;SDS_P2;PMS_P1;PMS_P2;Temp;Humidity;BMP_temperature;BMP_pressure;BME280_temperature;BME280_humidity;BME280_pressure;Samples;Min_cycle;Max_cycle;Signal;HPM_P1;HPM_P2
2021/12/07 00:01:10;;;;;;;4.38;2.10;;;;;;;;;;5088346;28;20036;-62
2021/12/07 00:03:36;;;;;;;2.92;1.30;;;;;;;;;;5087465;28;20473;-62
2021/12/07 00:06:03;;;;;;;3.00;1.45;;;;;;;;;;5086810;28;20117;-62
2021/12/07 00:08:29;;;;;;;3.22;1.58;;;;;;;;;;5087311;28;20169;-62
2021/12/07 00:10:55;;;;;;;5.43;1.77;;;;;;;;;;5074217;28;20027;-61
2021/12/07 00:13:23;;;;;;;4.60;1.50;;;;;;;;;;5089249;28;20047;-62
2021/12/07 00:15:49;;;;;;;3.33;1.35;;;;;;;;;;5086935;28;20028;-62
2021/12/07 00:18:15;;;;;;;4.55;2.15;;;;;;;;;;5087010;28;20024;-61
2021/12/07 00:20:41;;;;;;;3.67;1.70;;;;;;;;;;5079873;28;20107;-62
2021/12/07 00:23:09;;;;;;;4.20;1.90;;;;;;;;;;5070926;28;20120;-62
2021/12/07 00:25:35;;;;;;;4.30;2.05;;;;;;;;;;5089174;28;20024;-62
2021/12/07 00:28:01;;;;;;;4.97;1.70;;;;;;;;;;5086835;28;20473;-62
2021/12/07 00:30:31;;;;;;;3.00;1.55;;;;;;;;;;5088308;28;20107;-62
2021/12/07 00:33:12;;;;;;;4.10;2.00;;;;;;;;;;5087096;28;20028;-62
2021/12/07 00:35:38;;;;;;;4.40;2.40;;;;;;;;;;5087131;28;20024;-62
2021/12/07 00:38:06;;;;;;;5.18;2.30;;;;;;;;;;5088842;28;20092;-62
2021/12/07 00:40:32;;;;;;;;;;;;;;;;;;5075814;28;20031;-62
2021/12/07 00:42:58;;;;;;;3.08;1.67;;;;;;;;;;5088016;28;19908;-62
2021/12/07 00:45:25;;;;;;;2.20;1.27;;;;;;;;;;5090585;28;20031;-62
2021/12/07 00:47:53;;;;;;;3.22;1.52;;;;;;;;;;5090406;28;20016;-62
2021/12/07 00:50:20;;;;;;;3.60;1.63;;;;;;;;;;5074545;28;20054;-62
2021/12/07 00:52:46;;;;;;;3.78;1.58;;;;;;;;;;5089987;28;20024;-62
2021/12/07 00:55:14;;;;;;;4.90;2.03;;;;;;;;;;5089644;28;20040;-62
2021/12/07 00:57:40;;;;;;;3.17;1.55;;;;;;;;;;5090207;28;20392;-62
2021/12/07 01:00:09;;;;;;;3.35;1.77;;;;;;;;;;5091539;28;20036;-62
2021/12/07 01:02:35;;;;;;;3.75;1.40;;;;;;;;;;5072242;28;20029;-62
2021/12/07 01:05:09;;;;;;;4.78;1.80;;;;;;;;;;5091520;28;20031;-62
2021/12/07 01:07:55;;;;;;;3.67;1.85;;;;;;;;;;5092513;28;20482;-62
2021/12/07 01:26:51;;;;;;;4.68;1.77;;;;;;;;;;5089792;28;20047;-62
2021/12/07 01:29:20;;;;;;;2.33;1.42;;;;;;;;;;5074984;28;20031;-62
2021/12/07 01:45:26;;;;;;;3.92;1.70;;;;;;;;;;5089320;28;20084;-62
2021/12/07 01:50:33;;;;;;;3.78;1.75;;;;;;;;;;5082243;28;20051;-62
2021/12/07 02:01:29;;;;;;;3.13;1.77;;;;;;;;;;5090732;28;20054;-62
2021/12/07 02:03:55;;;;;;;4.22;1.77;;;;;;;;;;5088014;28;20469;-62
2021/12/07 02:06:22;;;;;;;3.22;1.60;;;;;;;;;;5089170;28;20031;-62
2021/12/07 02:08:47;;;;;;;3.75;1.50;;;;;;;;;;5089145;28;20031;-62
2021/12/07 02:11:14;;;;;;;3.15;1.60;;;;;;;;;;5074310;28;20028;-63
2021/12/07 02:16:06;;;;;;;2.45;1.40;;;;;;;;;;5088321;28;20478;-62
2021/12/07 02:18:32;;;;;;;2.35;1.30;;;;;;;;;;5088852;28;20028;-62
2021/12/07 02:21:12;;;;;;;2.50;1.50;;;;;;;;;;5081393;28;20024;-62
2021/12/07 02:23:38;;;;;;;1.58;0.88;;;;;;;;;;5088322;28;20028;-62
2021/12/07 02:26:04;;;;;;;3.55;1.60;;;;;;;;;;5090696;28;20153;-62
2021/12/07 02:28:30;;;;;;;4.25;1.98;;;;;;;;;;5089778;28;20024;-62
2021/12/07 02:30:56;;;;;;;3.78;1.55;;;;;;;;;;5089792;28;20050;-62
2021/12/07 02:33:22;;;;;;;3.22;1.60;;;;;;;;;;5088611;28;20115;-62
2021/12/07 02:35:48;;;;;;;3.40;1.42;;;;;;;;;;5088207;28;20486;-62
2021/12/07 02:38:14;;;;;;;4.68;1.80;;;;;;;;;;5088928;28;20024;-62
2021/12/07 02:40:40;;;;;;;3.65;1.58;;;;;;;;;;5076569;28;20035;-62
2021/12/07 02:43:06;;;;;;;2.70;1.60;;;;;;;;;;5087120;28;20039;-62
2021/12/07 02:45:32;;;;;;;4.10;1.40;;;;;;;;;;5088134;28;20047;-62
2021/12/07 02:47:58;;;;;;;2.55;1.23;;;;;;;;;;5088225;28;20028;-62
2021/12/07 02:50:24;;;;;;;2.65;1.10;;;;;;;;;;5080735;28;20060;-62
2021/12/07 02:52:50;;;;;;;2.92;1.30;;;;;;;;;;5090852;28;20024;-62
2021/12/07 02:55:16;;;;;;;2.42;1.10;;;;;;;;;;5088137;28;20668;-62
2021/12/07 02:57:44;;;;;;;2.08;1.10;;;;;;;;;;5065629;28;20469;-62
2021/12/07 03:00:16;;;;;;;2.10;0.90;;;;;;;;;;5089410;28;20416;-62
2021/12/07 03:02:53;;;;;;;1.70;0.70;;;;;;;;;;5087790;28;20020;-62
2021/12/07 03:05:38;;;;;;;1.60;0.85;;;;;;;;;;5072008;28;20119;-62
2021/12/07 03:27:01;;;;;;;2.70;1.58;;;;;;;;;;5087726;28;20043;-62
2021/12/07 03:29:27;;;;;;;3.45;1.70;;;;;;;;;;5088497;28;20032;-62
2021/12/07 03:31:53;;;;;;;2.17;1.35;;;;;;;;;;5087903;28;20061;-63
2021/12/07 03:34:19;;;;;;;2.30;1.20;;;;;;;;;;5087372;28;20123;-62
2021/12/07 03:36:45;;;;;;;2.95;1.30;;;;;;;;;;5087408;28;20031;-62
2021/12/07 03:39:11;;;;;;;3.28;1.73;;;;;;;;;;5085248;28;20067;-62
2021/12/07 03:41:37;;;;;;;4.50;1.92;;;;;;;;;;5056070;28;20028;-62
2021/12/07 03:44:04;;;;;;;4.22;1.83;;;;;;;;;;5089696;28;20032;-61
2021/12/07 03:46:30;;;;;;;4.85;2.00;;;;;;;;;;5088946;28;20483;-62
2021/12/07 03:48:56;;;;;;;6.20;1.80;;;;;;;;;;5087106;28;20119;-62
2021/12/07 03:51:22;;;;;;;4.60;1.90;;;;;;;;;;5087414;28;20102;-62
2021/12/07 03:53:48;;;;;;;4.63;1.92;;;;;;;;;;5087445;28;20108;-62
2021/12/07 03:56:15;;;;;;;5.13;1.85;;;;;;;;;;5087902;28;20060;-62
2021/12/07 03:58:42;;;;;;;3.58;1.55;;;;;;;;;;5090332;28;20020;-62
2021/12/07 04:01:10;;;;;;;3.63;1.70;;;;;;;;;;5088233;28;20106;-62
2021/12/07 04:03:36;;;;;;;;;;;;;;;;;;5088077;28;20108;-62
2021/12/07 04:06:06;;;;;;;3.78;1.80;;;;;;;;;;5086544;28;19998;-62
2021/12/07 04:08:32;;;;;;;2.38;1.35;;;;;;;;;;5068998;28;20074;-62
2021/12/07 04:10:59;;;;;;;5.20;1.75;;;;;;;;;;5084000;28;20024;-62
2021/12/07 04:13:25;;;;;;;4.05;2.03;;;;;;;;;;5095495;28;20122;-61
2021/12/07 04:15:51;;;;;;;2.90;1.50;;;;;;;;;;5090932;28;20012;-62
2021/12/07 04:18:17;;;;;;;3.42;1.38;;;;;;;;;;5091045;28;20067;-62
2021/12/07 04:20:43;;;;;;;1.85;1.20;;;;;;;;;;5090520;28;20051;-62
2021/12/07 04:23:10;;;;;;;3.28;1.30;;;;;;;;;;5086171;28;20047;-62
2021/12/07 04:25:36;;;;;;;3.75;1.58;;;;;;;;;;5093407;28;20099;-62
2021/12/07 04:28:03;;;;;;;4.35;1.60;;;;;;;;;;5084002;28;20478;-62
2021/12/07 04:30:31;;;;;;;5.57;1.65;;;;;;;;;;5092682;28;20404;-62
2021/12/07 04:32:58;;;;;;;6.00;1.40;;;;;;;;;;5092357;28;20067;-62
2021/12/07 04:35:24;;;;;;;1.38;0.70;;;;;;;;;;5090982;28;20427;-62
2021/12/07 04:37:51;;;;;;;3.00;1.25;;;;;;;;;;5092994;28;20060;-61
2021/12/07 04:40:19;;;;;;;3.65;1.85;;;;;;;;;;5093267;28;20058;-62
2021/12/07 04:42:45;;;;;;;4.15;1.63;;;;;;;;;;5092811;28;20522;-61
2021/12/07 04:45:23;;;;;;;2.30;1.40;;;;;;;;;;5090680;28;20484;-62
2021/12/07 04:58:19;;;;;;;2.88;0.93;;;;;;;;;;5091078;28;20055;-62
2021/12/07 05:00:45;;;;;;;3.50;1.50;;;;;;;;;;5090297;28;20069;-62
2021/12/07 05:03:14;;;;;;;3.55;1.58;;;;;;;;;;5089994;28;20032;-62
2021/12/07 05:05:46;;;;;;;3.92;1.25;;;;;;;;;;5090168;28;20029;-62
2021/12/07 05:08:15;;;;;;;3.08;1.25;;;;;;;;;;5091194;28;20028;-62
2021/12/07 05:11:44;;;;;;;3.42;1.55;;;;;;;;;;5093149;28;20353;-61
2021/12/07 05:13:38;;;;;;;2.20;1.08;;;;;;;;;;5074340;28;20488;-61
2021/12/07 05:23:58;;;;;;;2.03;0.95;;;;;;;;;;5089928;28;20423;-62
2021/12/07 05:39:57;;;;;;;2.17;1.40;;;;;;;;;;5089736;28;20043;-62
2021/12/07 05:42:23;;;;;;;3.00;1.60;;;;;;;;;;5089496;28;20032;-62
2021/12/07 05:44:50;;;;;;;3.17;1.55;;;;;;;;;;5089447;28;20438;-62
2021/12/07 05:47:16;;;;;;;2.90;1.42;;;;;;;;;;5089351;28;20070;-62
2021/12/07 05:49:42;;;;;;;2.95;1.30;;;;;;;;;;5092282;28;20048;-62
2021/12/07 05:52:09;;;;;;;2.55;1.35;;;;;;;;;;5088919;28;20550;-62
2021/12/07 05:54:35;;;;;;;2.40;1.27;;;;;;;;;;5089576;28;20036;-62
2021/12/07 05:57:01;;;;;;;2.55;1.10;;;;;;;;;;5088918;28;20424;-59
2021/12/07 05:59:27;;;;;;;2.03;0.95;;;;;;;;;;5088856;28;20043;-60
2021/12/07 06:01:54;;;;;;;2.63;0.90;;;;;;;;;;5091916;28;20024;-60
2021/12/07 06:04:20;;;;;;;1.75;0.98;;;;;;;;;;5089866;28;20034;-59
2021/12/07 06:06:46;;;;;;;3.83;1.38;;;;;;;;;;5088690;28;20024;-60
2021/12/07 06:09:12;;;;;;;2.20;1.38;;;;;;;;;;5088805;28;20039;-60
2021/12/07 06:11:38;;;;;;;3.55;1.23;;;;;;;;;;5088872;28;20108;-60
2021/12/07 06:14:04;;;;;;;2.70;1.35;;;;;;;;;;5089140;28;20048;-60
2021/12/07 06:16:31;;;;;;;3.33;1.30;;;;;;;;;;5091616;28;20032;-60
2021/12/07 06:18:58;;;;;;;2.42;0.98;;;;;;;;;;5088147;28;20038;-60
2021/12/07 06:21:25;;;;;;;2.70;1.40;;;;;;;;;;5090118;28;20020;-60
2021/12/07 06:23:52;;;;;;;3.85;1.70;;;;;;;;;;5089990;28;20020;-60
2021/12/07 06:26:18;;;;;;;4.20;1.50;;;;;;;;;;5082437;28;20028;-60
2021/12/07 06:28:44;;;;;;;2.03;1.13;;;;;;;;;;5091713;28;20028;-60
2021/12/07 06:31:10;;;;;;;2.78;1.15;;;;;;;;;;5089267;28;20032;-60
2021/12/07 06:33:36;;;;;;;2.22;1.27;;;;;;;;;;5087398;28;20032;-60
2021/12/07 06:36:03;;;;;;;2.47;1.30;;;;;;;;;;5089729;28;20032;-60
2021/12/07 06:38:31;;;;;;;3.72;1.70;;;;;;;;;;5089884;28;20024;-60
2021/12/07 06:40:57;;;;;;;3.78;1.85;;;;;;;;;;5072001;28;20801;-60
2021/12/07 06:43:23;;;;;;;4.07;2.20;;;;;;;;;;5090757;28;20102;-60
2021/12/07 06:45:50;;;;;;;3.42;1.92;;;;;;;;;;5090228;28;20476;-59
2021/12/07 06:48:16;;;;;;;4.32;1.98;;;;;;;;;;5090110;28;20030;-60
2021/12/07 06:50:42;;;;;;;3.50;1.80;;;;;;;;;;5087222;28;20036;-60
2021/12/07 06:53:08;;;;;;;3.13;1.83;;;;;;;;;;5089036;28;20106;-59
2021/12/07 06:55:34;;;;;;;4.65;2.17;;;;;;;;;;5089587;28;20036;-60
2021/12/07 06:58:00;;;;;;;6.78;2.90;;;;;;;;;;5089524;28;20032;-60
2021/12/07 07:00:26;;;;;;;3.47;1.50;;;;;;;;;;5087625;28;20479;-59
2021/12/07 07:02:52;;;;;;;5.10;2.53;;;;;;;;;;5089082;28;20024;-60
2021/12/07 07:05:18;;;;;;;8.02;3.22;;;;;;;;;;5088159;28;20031;-60
2021/12/07 07:07:44;;;;;;;7.32;3.40;;;;;;;;;;5090750;28;20526;-61
2021/12/07 07:10:13;;;;;;;9.73;4.57;;;;;;;;;;5089173;28;20365;-61
2021/12/07 07:12:39;;;;;;;8.32;4.32;;;;;;;;;;5089149;28;20399;-61
2021/12/07 07:15:06;;;;;;;6.57;3.42;;;;;;;;;;5088416;28;20398;-61
2021/12/07 07:17:33;;;;;;;7.20;3.67;;;;;;;;;;5088865;28;20024;-61
2021/12/07 07:19:59;;;;;;;6.03;2.80;;;;;;;;;;5087771;28;20028;-61
2021/12/07 07:22:24;;;;;;;4.35;1.98;;;;;;;;;;5085106;28;20437;-61
2021/12/07 07:24:51;;;;;;;3.33;1.50;;;;;;;;;;5081681;28;20055;-61
2021/12/07 07:27:17;;;;;;;4.65;2.20;;;;;;;;;;5085063;28;20028;-62
2021/12/07 07:29:43;;;;;;;5.15;2.33;;;;;;;;;;5087381;28;20028;-59
2021/12/07 07:32:10;;;;;;;3.83;1.67;;;;;;;;;;5087917;28;20073;-59
2021/12/07 07:34:36;;;;;;;5.82;3.10;;;;;;;;;;5088021;28;20051;-59
2021/12/07 07:37:03;;;;;;;5.40;2.60;;;;;;;;;;5085106;28;20513;-62
2021/12/07 07:39:29;;;;;;;8.68;3.42;;;;;;;;;;5086241;28;20035;-62
2021/12/07 07:41:55;;;;;;;8.40;4.03;;;;;;;;;;5085052;28;20056;-62
2021/12/07 07:44:21;;;;;;;7.95;3.72;;;;;;;;;;5085843;28;20043;-62
2021/12/07 07:46:47;;;;;;;10.98;4.70;;;;;;;;;;5089067;28;20032;-62
2021/12/07 07:49:13;;;;;;;8.52;4.80;;;;;;;;;;5085232;28;20052;-62
2021/12/07 07:51:39;;;;;;;11.05;5.07;;;;;;;;;;5087758;28;20020;-62
2021/12/07 07:54:06;;;;;;;8.25;3.90;;;;;;;;;;5090213;28;20040;-62
2021/12/07 07:56:32;;;;;;;7.50;3.88;;;;;;;;;;5089257;28;20382;-62
2021/12/07 07:58:59;;;;;;;5.88;3.08;;;;;;;;;;5089621;28;20046;-62
2021/12/07 08:01:28;;;;;;;7.07;3.55;;;;;;;;;;5089002;28;20030;-63
2021/12/07 08:03:54;;;;;;;6.53;3.42;;;;;;;;;;5088839;28;20021;-63
2021/12/07 08:06:20;;;;;;;8.23;4.38;;;;;;;;;;5089096;28;20027;-59
2021/12/07 08:08:47;;;;;;;10.25;5.25;;;;;;;;;;5088204;28;20465;-59
2021/12/07 08:11:13;;;;;;;8.27;5.38;;;;;;;;;;5090180;28;20456;-59
2021/12/07 08:13:40;;;;;;;10.50;6.40;;;;;;;;;;5092340;28;20043;-59
2021/12/07 08:16:06;;;;;;;6.43;4.07;;;;;;;;;;5089919;28;20035;-59
2021/12/07 08:18:32;;;;;;;6.97;4.22;;;;;;;;;;5087980;28;20028;-60
2021/12/07 08:20:58;;;;;;;6.97;4.00;;;;;;;;;;5088172;28;20512;-60
2021/12/07 08:23:24;;;;;;;7.60;4.85;;;;;;;;;;5089982;28;20028;-59
2021/12/07 08:25:50;;;;;;;8.80;4.82;;;;;;;;;;5092908;28;20062;-59
2021/12/07 08:28:19;;;;;;;8.15;4.78;;;;;;;;;;5091400;28;20028;-59
2021/12/07 08:30:45;;;;;;;5.32;3.38;;;;;;;;;;5088294;28;20024;-59
2021/12/07 08:33:12;;;;;;;1.67;1.10;;;;;;;;;;5089561;28;20039;-59
2021/12/07 08:35:39;;;;;;;1.52;1.00;;;;;;;;;;5089478;28;20036;-59
2021/12/07 08:38:06;;;;;;;5.38;3.03;;;;;;;;;;5092926;28;20381;-59
2021/12/07 08:40:33;;;;;;;4.85;2.72;;;;;;;;;;5091196;28;20103;-60
2021/12/07 08:43:00;;;;;;;6.75;3.08;;;;;;;;;;5090405;28;20020;-60
2021/12/07 08:45:27;;;;;;;5.00;2.75;;;;;;;;;;5090477;28;20495;-60
2021/12/07 08:47:53;;;;;;;5.78;3.03;;;;;;;;;;5090776;28;20020;-60
2021/12/07 08:50:21;;;;;;;5.28;2.92;;;;;;;;;;5089720;28;20047;-60
2021/12/07 08:52:48;;;;;;;5.40;2.83;;;;;;;;;;5090178;28;20476;-60
2021/12/07 09:00:28;;;;;;;2.72;1.65;;;;;;;;;;5090603;28;20081;-60
2021/12/07 09:02:54;;;;;;;3.08;1.33;;;;;;;;;;5088851;28;20103;-61
2021/12/07 09:05:20;;;;;;;1.27;0.80;;;;;;;;;;5090301;28;20115;-61
2021/12/07 09:07:46;;;;;;;1.25;0.88;;;;;;;;;;5089300;28;20103;-61
2021/12/07 09:10:12;;;;;;;1.15;0.85;;;;;;;;;;5089499;28;20530;-61
2021/12/07 09:12:39;;;;;;;1.52;1.23;;;;;;;;;;5089627;28;20073;-60
2021/12/07 09:15:06;;;;;;;1.08;0.77;;;;;;;;;;5090255;28;20510;-60
2021/12/07 09:17:32;;;;;;;3.95;2.15;;;;;;;;;;5089410;28;20031;-60
2021/12/07 09:19:58;;;;;;;4.90;2.35;;;;;;;;;;5092105;28;20362;-60
2021/12/07 09:22:25;;;;;;;4.38;2.10;;;;;;;;;;5090255;28;20039;-60
2021/12/07 09:24:51;;;;;;;2.78;1.38;;;;;;;;;;5089996;28;20024;-60
2021/12/07 09:27:17;;;;;;;1.50;1.00;;;;;;;;;;5089729;28;20023;-60
2021/12/07 09:29:43;;;;;;;1.95;1.05;;;;;;;;;;5090012;28;20020;-60
2021/12/07 09:32:09;;;;;;;0.82;0.60;;;;;;;;;;5090781;28;20039;-60
2021/12/07 09:34:35;;;;;;;1.00;0.60;;;;;;;;;;5091095;28;20039;-60
2021/12/07 09:37:01;;;;;;;0.90;0.55;;;;;;;;;;5089688;28;20020;-60
2021/12/07 09:39:27;;;;;;;0.38;0.30;;;;;;;;;;5089146;28;20028;-61
2021/12/07 09:41:55;;;;;;;0.60;0.30;;;;;;;;;;5089829;28;20451;-60
2021/12/07 09:44:21;;;;;;;0.45;0.30;;;;;;;;;;5089567;28;20047;-60
2021/12/07 09:46:47;;;;;;;0.63;0.32;;;;;;;;;;5093100;28;20023;-60
2021/12/07 09:49:13;;;;;;;1.08;0.38;;;;;;;;;;5088937;28;20040;-61
2021/12/07 09:51:39;;;;;;;0.30;0.20;;;;;;;;;;5089367;28;20016;-60
2021/12/07 09:54:08;;;;;;;0.45;0.40;;;;;;;;;;5090696;28;20043;-60
2021/12/07 09:56:34;;;;;;;0.32;0.22;;;;;;;;;;5089585;28;20027;-60
2021/12/07 09:59:01;;;;;;;0.50;0.20;;;;;;;;;;5091925;28;20035;-60
2021/12/07 10:01:28;;;;;;;0.85;0.30;;;;;;;;;;5090385;28;20123;-60
2021/12/07 10:03:54;;;;;;;1.00;0.40;;;;;;;;;;5089171;28;20107;-59
2021/12/07 10:06:20;;;;;;;1.58;0.30;;;;;;;;;;5088500;28;20493;-60
2021/12/07 10:08:47;;;;;;;1.02;0.55;;;;;;;;;;5087274;28;20473;-60
2021/12/07 10:11:14;;;;;;;1.00;0.63;;;;;;;;;;5087419;28;20043;-60
2021/12/07 10:13:41;;;;;;;1.67;0.60;;;;;;;;;;5089781;28;20040;-60
2021/12/07 10:16:08;;;;;;;1.27;0.70;;;;;;;;;;5087766;28;20031;-60
2021/12/07 10:18:38;;;;;;;1.08;0.43;;;;;;;;;;5088412;28;20028;-60
2021/12/07 10:21:10;;;;;;;1.10;0.35;;;;;;;;;;5089003;28;20028;-59
2021/12/07 10:23:38;;;;;;;0.50;0.20;;;;;;;;;;5088788;28;20113;-60
2021/12/07 10:26:04;;;;;;;0.30;0.30;;;;;;;;;;5090575;28;20020;-59
2021/12/07 10:28:32;;;;;;;0.32;0.20;;;;;;;;;;5090061;28;20064;-60
2021/12/07 10:31:07;;;;;;;0.50;0.30;;;;;;;;;;5088473;28;20028;-60
2021/12/07 10:33:35;;;;;;;1.35;0.40;;;;;;;;;;5088694;28;20039;-60
2021/12/07 10:36:17;;;;;;;0.47;0.40;;;;;;;;;;5088177;28;20063;-60
2021/12/07 10:38:58;;;;;;;0.93;0.50;;;;;;;;;;5088131;28;20028;-58
2021/12/07 10:41:25;;;;;;;0.50;0.40;;;;;;;;;;5084823;28;20392;-61
2021/12/07 10:43:52;;;;;;;1.38;0.63;;;;;;;;;;5073599;28;20057;-63
2021/12/07 10:46:33;;;;;;;2.72;0.60;;;;;;;;;;5088914;28;20024;-62
2021/12/07 10:49:08;;;;;;;0.77;0.60;;;;;;;;;;5087818;28;20035;-61
2021/12/07 10:51:34;;;;;;;3.65;0.50;;;;;;;;;;5087737;28;20027;-61
2021/12/07 10:54:00;;;;;;;0.85;0.55;;;;;;;;;;5088183;28;20040;-62
2021/12/07 10:56:45;;;;;;;1.80;0.68;;;;;;;;;;5088186;28;20112;-61
2021/12/07 10:59:12;;;;;;;0.95;0.30;;;;;;;;;;5086465;28;20055;-61
2021/12/07 11:01:42;;;;;;;0.52;0.38;;;;;;;;;;5091299;28;20095;-61
2021/12/07 11:04:23;;;;;;;1.02;0.40;;;;;;;;;;5088941;28;20039;-61
2021/12/07 11:07:05;;;;;;;0.38;0.30;;;;;;;;;;5078509;28;20097;-61
2021/12/07 11:09:36;;;;;;;1.15;0.60;;;;;;;;;;5092419;28;20039;-61
2021/12/07 11:12:07;;;;;;;0.98;0.40;;;;;;;;;;5087068;28;20043;-61
2021/12/07 11:14:52;;;;;;;0.52;0.30;;;;;;;;;;5069797;28;20485;-61
2021/12/07 11:17:22;;;;;;;1.20;0.68;;;;;;;;;;5079384;28;20028;-61
2021/12/07 11:19:48;;;;;;;0.50;0.32;;;;;;;;;;5079000;28;20020;-61
2021/12/07 11:22:19;;;;;;;0.30;0.20;;;;;;;;;;5084598;28;20024;-60
2021/12/07 11:24:46;;;;;;;0.40;0.20;;;;;;;;;;5083914;28;20365;-61
2021/12/07 11:30:04;;;;;;;1.08;0.63;;;;;;;;;;5084447;28;20039;-60
2021/12/07 11:32:31;;;;;;;10.00;4.38;;;;;;;;;;5082560;28;20519;-60
2021/12/07 11:35:06;;;;;;;14.10;7.38;;;;;;;;;;5082617;28;20374;-60
2021/12/07 11:37:37;;;;;;;2.47;1.35;;;;;;;;;;5084213;28;20013;-60
2021/12/07 11:40:05;;;;;;;1.85;1.08;;;;;;;;;;5088110;28;20024;-60
2021/12/07 11:42:36;;;;;;;2.83;1.73;;;;;;;;;;5083521;28;20019;-60
2021/12/07 11:45:06;;;;;;;2.85;0.80;;;;;;;;;;5083365;28;20385;-60
2021/12/07 11:47:35;;;;;;;0.57;0.35;;;;;;;;;;5083505;28;20024;-60
2021/12/07 11:50:09;;;;;;;0.80;0.60;;;;;;;;;;5082755;28;20079;-60
2021/12/07 11:52:35;;;;;;;4.18;1.33;;;;;;;;;;5086593;28;20032;-60
2021/12/07 11:55:01;;;;;;;1.50;1.10;;;;;;;;;;5083075;28;20036;-60
2021/12/07 11:57:27;;;;;;;1.13;0.73;;;;;;;;;;5085910;28;20030;-60
2021/12/07 11:59:53;;;;;;;0.55;0.30;;;;;;;;;;5082567;28;20027;-61
2021/12/07 12:02:19;;;;;;;0.82;0.50;;;;;;;;;;5091336;28;20023;-60
2021/12/07 12:04:46;;;;;;;0.43;0.30;;;;;;;;;;5094541;28;20024;-60
2021/12/07 12:07:12;;;;;;;0.63;0.20;;;;;;;;;;5086354;28;20115;-60
2021/12/07 12:09:47;;;;;;;0.32;0.20;;;;;;;;;;5086751;28;20016;-61
2021/12/07 12:12:13;;;;;;;0.60;0.28;;;;;;;;;;5086244;28;20423;-60
2021/12/07 12:14:47;;;;;;;0.43;0.20;;;;;;;;;;5085215;28;20055;-60
2021/12/07 12:17:19;;;;;;;5.68;0.60;;;;;;;;;;5086868;28;20016;-60
2021/12/07 12:20:03;;;;;;;0.80;0.20;;;;;;;;;;5089406;28;20035;-60
2021/12/07 12:22:38;;;;;;;0.30;0.20;;;;;;;;;;5088720;28;20031;-61
2021/12/07 12:25:07;;;;;;;0.65;0.20;;;;;;;;;;5085731;28;20539;-60
2021/12/07 12:27:35;;;;;;;0.95;0.20;;;;;;;;;;5089683;28;20112;-60
2021/12/07 12:30:05;;;;;;;0.00;0.00;;;;;;;;;;5084941;28;20055;-60
2021/12/07 12:32:33;;;;;;;1.83;0.60;;;;;;;;;;5086214;28;20032;-60
2021/12/07 12:34:59;;;;;;;0.55;0.20;;;;;;;;;;5089072;28;20036;-60
2021/12/07 12:37:31;;;;;;;0.75;0.43;;;;;;;;;;5088558;28;20024;-60
2021/12/07 12:40:05;;;;;;;0.40;0.22;;;;;;;;;;5089791;28;20020;-60
2021/12/07 12:42:45;;;;;;;0.20;0.20;;;;;;;;;;5088625;28;20028;-60
2021/12/07 12:45:32;;;;;;;0.55;0.20;;;;;;;;;;5089429;28;20028;-60
2021/12/07 12:47:58;;;;;;;2.65;0.22;;;;;;;;;;5088544;28;20038;-60
2021/12/07 12:50:27;;;;;;;0.82;0.20;;;;;;;;;;5088942;28;20111;-60
2021/12/07 12:53:14;;;;;;;1.90;0.40;;;;;;;;;;5092557;28;20031;-60
2021/12/07 12:55:40;;;;;;;1.65;0.50;;;;;;;;;;5091838;28;20378;-60
2021/12/07 12:58:09;;;;;;;1.35;0.88;;;;;;;;;;5088460;28;20035;-60
2021/12/07 13:00:35;;;;;;;;;;;;;;;;;;5089274;28;20385;-59
2021/12/07 13:03:09;;;;;;;3.13;1.55;;;;;;;;;;5089680;28;19911;-60
2021/12/07 13:05:36;;;;;;;1.10;0.80;;;;;;;;;;5071666;28;20034;-60
2021/12/07 13:08:13;;;;;;;1.30;0.70;;;;;;;;;;5091950;28;20028;-60
2021/12/07 13:11:14;;;;;;;0.80;0.57;;;;;;;;;;5092609;28;20017;-60
2021/12/07 13:13:47;;;;;;;1.10;0.40;;;;;;;;;;5011284;28;20081;-62
2021/12/07 13:16:14;;;;;;;1.33;0.70;;;;;;;;;;5077108;28;20535;-62
2021/12/07 13:18:41;;;;;;;3.47;0.88;;;;;;;;;;5089354;28;20032;-62
2021/12/07 13:21:27;;;;;;;2.90;1.38;;;;;;;;;;5086394;28;20035;-60
2021/12/07 13:24:03;;;;;;;3.75;2.22;;;;;;;;;;5089587;28;20445;-62
2021/12/07 13:26:37;;;;;;;5.32;1.58;;;;;;;;;;5078758;28;20052;-60
2021/12/07 13:29:14;;;;;;;0.40;0.38;;;;;;;;;;5091794;28;20028;-64
2021/12/07 13:31:44;;;;;;;2.28;1.00;;;;;;;;;;5092734;28;20515;-64
2021/12/07 13:34:12;;;;;;;2.63;1.20;;;;;;;;;;5089472;28;20471;-60
2021/12/07 13:36:38;;;;;;;4.15;2.17;;;;;;;;;;5089822;28;20020;-62
2021/12/07 13:39:07;;;;;;;5.25;2.90;;;;;;;;;;5089076;28;20515;-62
2021/12/07 13:41:33;;;;;;;3.10;1.30;;;;;;;;;;5088476;28;20070;-65
2021/12/07 13:44:00;;;;;;;2.58;1.25;;;;;;;;;;5091893;28;20024;-63
2021/12/07 13:46:27;;;;;;;3.33;1.58;;;;;;;;;;5090320;28;20554;-64
2021/12/07 13:49:02;;;;;;;2.85;1.40;;;;;;;;;;5089346;28;20020;-63
2021/12/07 13:51:28;;;;;;;2.03;1.00;;;;;;;;;;5087913;28;20038;-64
2021/12/07 13:53:54;;;;;;;2.30;1.10;;;;;;;;;;5089002;28;20059;-63
2021/12/07 13:56:21;;;;;;;2.70;1.40;;;;;;;;;;5089759;28;20507;-62
2021/12/07 13:59:21;;;;;;;3.83;2.15;;;;;;;;;;5088701;28;20030;-64
2021/12/07 14:01:49;;;;;;;3.35;1.65;;;;;;;;;;5043443;28;20036;-65
2021/12/07 14:04:15;;;;;;;3.30;1.20;;;;;;;;;;5088996;28;20403;-66
2021/12/07 14:06:46;;;;;;;1.67;0.77;;;;;;;;;;5089220;28;20055;-62
2021/12/07 14:09:12;;;;;;;3.55;1.38;;;;;;;;;;5089252;28;20027;-64
2021/12/07 14:11:39;;;;;;;2.92;0.95;;;;;;;;;;5088676;28;20351;-65
2021/12/07 14:14:09;;;;;;;2.92;1.20;;;;;;;;;;5091283;28;20413;-65
2021/12/07 14:16:35;;;;;;;2.92;0.93;;;;;;;;;;5092513;28;20074;-63
2021/12/07 14:19:01;;;;;;;1.13;0.70;;;;;;;;;;5088805;28;20389;-64
2021/12/07 14:21:28;;;;;;;0.80;0.60;;;;;;;;;;5088184;28;20059;-63
2021/12/07 14:24:04;;;;;;;1.27;0.70;;;;;;;;;;5088996;28;20032;-62
2021/12/07 14:26:30;;;;;;;1.05;0.82;;;;;;;;;;5088853;28;20035;-62
2021/12/07 14:29:02;;;;;;;0.52;0.40;;;;;;;;;;5091252;28;20035;-62
2021/12/07 14:31:42;;;;;;;2.95;1.00;;;;;;;;;;5091447;28;20142;-68
2021/12/07 14:34:12;;;;;;;2.30;1.20;;;;;;;;;;5088464;28;20125;-66
2021/12/07 14:36:43;;;;;;;2.78;1.20;;;;;;;;;;5088641;28;20035;-65
2021/12/07 14:39:18;;;;;;;1.83;0.80;;;;;;;;;;5088626;28;20032;-64
2021/12/07 14:41:46;;;;;;;2.42;1.30;;;;;;;;;;5075118;28;20378;-64
2021/12/07 14:44:16;;;;;;;1.85;1.00;;;;;;;;;;5089571;28;20480;-64
2021/12/07 14:46:43;;;;;;;2.35;0.80;;;;;;;;;;5091365;28;20149;-65
2021/12/07 14:49:09;;;;;;;0.95;0.73;;;;;;;;;;5088447;28;20512;-64
2021/12/07 14:51:35;;;;;;;3.50;1.80;;;;;;;;;;5088132;28;20389;-65
2021/12/07 14:54:02;;;;;;;6.20;2.53;;;;;;;;;;5087435;28;20036;-65
2021/12/07 14:56:30;;;;;;;;;;;;;;;;;;5090033;28;20070;-65
2021/12/07 14:58:56;;;;;;;2.25;1.27;;;;;;;;;;5091429;28;20357;-65
2021/12/07 15:01:24;;;;;;;3.67;1.42;;;;;;;;;;5089834;28;20111;-64
2021/12/07 15:03:52;;;;;;;2.40;1.27;;;;;;;;;;5087841;28;20635;-64
2021/12/07 15:06:18;;;;;;;4.28;1.80;;;;;;;;;;5088332;28;20032;-65
2021/12/07 15:08:45;;;;;;;8.50;2.45;;;;;;;;;;5087796;28;20016;-64
2021/12/07 15:11:11;;;;;;;6.32;3.47;;;;;;;;;;5089044;28;20051;-63
2021/12/07 15:13:38;;;;;;;8.23;3.65;;;;;;;;;;5090032;28;20028;-64
2021/12/07 15:16:05;;;;;;;5.95;2.75;;;;;;;;;;5089707;28;20038;-65
2021/12/07 15:18:33;;;;;;;13.00;7.75;;;;;;;;;;5087734;28;20062;-63
2021/12/07 15:20:59;;;;;;;6.45;2.88;;;;;;;;;;5087859;28;20190;-64
2021/12/07 15:23:26;;;;;;;5.20;2.78;;;;;;;;;;5087343;28;20031;-64
2021/12/07 15:25:54;;;;;;;5.95;2.72;;;;;;;;;;5090571;28;20020;-64
2021/12/07 15:28:21;;;;;;;6.15;3.65;;;;;;;;;;5088308;28;20016;-63
2021/12/07 15:30:50;;;;;;;7.50;3.75;;;;;;;;;;5088445;28;20422;-65
2021/12/07 15:33:17;;;;;;;7.10;4.32;;;;;;;;;;5086880;28;20028;-65
2021/12/07 15:35:44;;;;;;;8.80;5.93;;;;;;;;;;5087712;28;20130;-65
2021/12/07 15:38:28;;;;;;;6.15;3.67;;;;;;;;;;5089064;28;20024;-65
2021/12/07 15:40:54;;;;;;;8.45;4.90;;;;;;;;;;5086910;28;20028;-65
2021/12/07 15:43:20;;;;;;;8.40;4.50;;;;;;;;;;5087842;28;20035;-65
2021/12/07 15:45:47;;;;;;;8.57;4.75;;;;;;;;;;5087094;28;20426;-64
2021/12/07 15:48:13;;;;;;;8.70;4.85;;;;;;;;;;5087601;28;20032;-64
2021/12/07 15:50:39;;;;;;;9.05;5.47;;;;;;;;;;5087465;28;20043;-66
2021/12/07 15:53:09;;;;;;;5.70;3.05;;;;;;;;;;5089654;28;20032;-65
2021/12/07 15:55:37;;;;;;;7.40;3.85;;;;;;;;;;5088714;28;20040;-65
2021/12/07 15:58:11;;;;;;;13.07;5.80;;;;;;;;;;5087585;28;20024;-65
2021/12/07 16:00:39;;;;;;;7.18;2.63;;;;;;;;;;5088020;28;20032;-62
2021/12/07 16:03:07;;;;;;;12.13;3.40;;;;;;;;;;5087209;28;20026;-62
2021/12/07 16:05:37;;;;;;;10.48;4.63;;;;;;;;;;5087195;28;20031;-62
2021/12/07 16:08:11;;;;;;;11.98;4.85;;;;;;;;;;5089112;28;20031;-65
2021/12/07 16:10:38;;;;;;;11.13;5.78;;;;;;;;;;5089295;28;20108;-66
2021/12/07 16:13:05;;;;;;;10.15;4.95;;;;;;;;;;5089902;28;20058;-65
2021/12/07 16:15:32;;;;;;;10.13;5.68;;;;;;;;;;5092811;28;20036;-65
2021/12/07 16:17:58;;;;;;;9.63;4.60;;;;;;;;;;5090781;28;20024;-64
2021/12/07 16:20:25;;;;;;;3.75;2.35;;;;;;;;;;5091159;28;20498;-62
2021/12/07 16:22:51;;;;;;;5.90;2.78;;;;;;;;;;5093956;28;20028;-62
2021/12/07 16:25:17;;;;;;;4.70;2.22;;;;;;;;;;5092870;28;20427;-63
2021/12/07 16:27:43;;;;;;;3.85;2.00;;;;;;;;;;5091065;28;20032;-63
2021/12/07 16:30:10;;;;;;;3.67;1.85;;;;;;;;;;5090757;28;20028;-62
2021/12/07 16:32:37;;;;;;;3.80;1.80;;;;;;;;;;5091009;28;20024;-63